Time;durP1;ratioP1;P1;durP2;ratioP2;P2;SDS_P1;SDS_P2;PMS_P1;PMS_P2;Temp;Humidity;BMP_temperature;BMP_pressure;BME280_temperature;BME280_humidity;BME280_pressure;Samples;Min_cycle;Max_cycle;Signal;HPM_P1;HPM_P2
2023/10/13 00:02:03;;;;;;;53.38;23.08;;;;;;;;;;6246418;28;20041;-59
2023/10/13 00:05:04;;;;;;;68.55;27.38;;;;;;;;;;6244098;28;20133;-57
2023/10/13 00:08:06;;;;;;;53.03;23.95;;;;;;;;;;6245829;28;20046;-58
2023/10/13 00:11:11;;;;;;;52.60;23.60;;;;;;;;;;6254790;28;20095;-57
2023/10/13 00:14:16;;;;;;;56.25;30.13;;;;;;;;;;6242410;28;20052;-58
2023/10/13 00:17:20;;;;;;;55.47;24.35;;;;;;;;;;6258005;28;20549;-59
2023/10/13 00:20:37;;;;;;;52.55;22.65;;;;;;;;;;6246719;28;20052;-58
2023/10/13 00:23:52;;;;;;;45.30;20.80;;;;;;;;;;6244724;28;20140;-58
2023/10/13 00:26:53;;;;;;;51.10;22.42;;;;;;;;;;6242940;28;20424;-58
2023/10/13 00:33:21;;;;;;;47.83;22.02;;;;;;;;;;6243392;28;20675;-57
2023/10/13 00:36:23;;;;;;;55.20;24.25;;;;;;;;;;6243155;28;20057;-58
2023/10/13 00:39:23;;;;;;;53.13;23.27;;;;;;;;;;6244244;28;20041;-59
2023/10/13 00:42:47;;;;;;;50.08;22.48;;;;;;;;;;6245403;28;20050;-58
2023/10/13 00:45:57;;;;;;;48.30;22.38;;;;;;;;;;6244126;28;20091;-57
2023/10/13 00:48:58;;;;;;;65.43;23.50;;;;;;;;;;6243733;28;20092;-58
2023/10/13 00:51:58;;;;;;;47.22;21.52;;;;;;;;;;6251843;28;20045;-58
2023/10/13 00:55:00;;;;;;;51.35;21.77;;;;;;;;;;6244297;28;20046;-56
2023/10/13 00:58:07;;;;;;;57.75;22.73;;;;;;;;;;6244417;28;20042;-59
2023/10/13 01:01:29;;;;;;;115.40;23.15;;;;;;;;;;6255222;28;20048;-58
2023/10/13 01:04:31;;;;;;;47.67;22.27;;;;;;;;;;6243863;28;20532;-58
2023/10/13 01:07:32;;;;;;;55.95;22.42;;;;;;;;;;6244458;28;20305;-58
2023/10/13 01:10:33;;;;;;;53.85;22.77;;;;;;;;;;6256933;28;20045;-56
2023/10/13 01:13:36;;;;;;;52.20;23.55;;;;;;;;;;6257771;28;20061;-58
2023/10/13 01:16:45;;;;;;;58.80;24.17;;;;;;;;;;6243476;28;20511;-57
2023/10/13 01:19:49;;;;;;;71.88;30.67;;;;;;;;;;6242901;28;20049;-57
2023/10/13 01:22:55;;;;;;;69.00;31.13;;;;;;;;;;6241850;28;20073;-58
2023/10/13 01:25:56;;;;;;;65.65;29.33;;;;;;;;;;6245630;28;20144;-59
2023/10/13 01:28:57;;;;;;;63.80;30.88;;;;;;;;;;6244066;28;20049;-56
2023/10/13 01:31:58;;;;;;;55.47;27.23;;;;;;;;;;6254871;28;20098;-58
2023/10/13 01:35:05;;;;;;;54.08;26.83;;;;;;;;;;6243310;28;20431;-58
2023/10/13 01:38:06;;;;;;;56.25;24.73;;;;;;;;;;6244236;28;20141;-58
2023/10/13 01:41:08;;;;;;;53.53;25.35;;;;;;;;;;6243712;28;20503;-58
2023/10/13 01:44:14;;;;;;;51.25;24.92;;;;;;;;;;6241182;28;20046;-58
2023/10/13 01:47:16;;;;;;;46.78;25.17;;;;;;;;;;6241300;28;20095;-59
2023/10/13 01:50:21;;;;;;;;;;;;;;;;;;6244837;28;20098;-57
2023/10/13 01:53:22;;;;;;;61.60;25.98;;;;;;;;;;6242149;28;19925;-58
2023/10/13 01:56:24;;;;;;;56.97;26.27;;;;;;;;;;6242238;28;20069;-58
2023/10/13 01:59:26;;;;;;;61.40;28.55;;;;;;;;;;6243792;28;20045;-57
2023/10/13 02:02:30;;;;;;;57.25;27.27;;;;;;;;;;6241881;28;20045;-57
2023/10/13 02:05:35;;;;;;;55.85;25.42;;;;;;;;;;6242712;28;20087;-56
2023/10/13 02:08:42;;;;;;;58.10;26.88;;;;;;;;;;6244256;28;20398;-59
2023/10/13 02:11:46;;;;;;;56.28;26.45;;;;;;;;;;6245728;28;20058;-59
2023/10/13 02:14:47;;;;;;;58.03;26.80;;;;;;;;;;6246406;28;20041;-59
2023/10/13 02:17:51;;;;;;;59.92;26.90;;;;;;;;;;6250175;28;20064;-58
2023/10/13 02:20:56;;;;;;;52.00;25.98;;;;;;;;;;6242712;28;20415;-59
2023/10/13 02:24:00;;;;;;;47.33;24.02;;;;;;;;;;6241376;28;20049;-57
2023/10/13 02:27:09;;;;;;;54.65;26.73;;;;;;;;;;6242172;28;20044;-59
2023/10/13 02:30:14;;;;;;;52.45;25.80;;;;;;;;;;6242476;28;20057;-56
2023/10/13 02:33:20;;;;;;;52.10;25.55;;;;;;;;;;6242056;28;20064;-60
2023/10/13 02:36:36;;;;;;;56.95;26.75;;;;;;;;;;6242458;28;20459;-57
2023/10/13 02:39:40;;;;;;;58.22;27.13;;;;;;;;;;6242044;28;20052;-59
2023/10/13 02:42:41;;;;;;;63.83;29.60;;;;;;;;;;6241123;28;20041;-56
2023/10/13 02:45:51;;;;;;;76.93;34.88;;;;;;;;;;6242400;28;20049;-55
2023/10/13 02:48:57;;;;;;;93.00;41.20;;;;;;;;;;6241831;28;20072;-59
2023/10/13 02:51:59;;;;;;;82.65;37.28;;;;;;;;;;6241894;28;20041;-57
2023/10/13 02:55:00;;;;;;;74.93;35.28;;;;;;;;;;6241997;28;20042;-57
2023/10/13 02:58:01;;;;;;;72.50;33.00;;;;;;;;;;6240857;28;20115;-57
2023/10/13 03:01:03;;;;;;;69.13;30.05;;;;;;;;;;6241333;28;20064;-58
2023/10/13 03:04:08;;;;;;;72.03;32.45;;;;;;;;;;6243120;28;20056;-57
2023/10/13 03:07:08;;;;;;;69.40;30.08;;;;;;;;;;6241119;28;20048;-57
2023/10/13 03:10:12;;;;;;;62.58;27.15;;;;;;;;;;6251952;28;20041;-58
2023/10/13 03:13:12;;;;;;;58.58;25.67;;;;;;;;;;6250276;28;20469;-60
2023/10/13 03:16:19;;;;;;;62.45;27.55;;;;;;;;;;6242034;28;20037;-58
2023/10/13 03:19:20;;;;;;;54.05;24.63;;;;;;;;;;6239846;28;20048;-57
2023/10/13 03:22:30;;;;;;;61.28;27.20;;;;;;;;;;6242023;28;20045;-55
2023/10/13 03:25:42;;;;;;;63.47;30.40;;;;;;;;;;6255203;28;20174;-57
2023/10/13 03:28:46;;;;;;;58.78;27.50;;;;;;;;;;6240317;28;20522;-57
2023/10/13 03:31:47;;;;;;;57.40;26.83;;;;;;;;;;6241475;28;21533;-57
2023/10/13 03:37:52;;;;;;;68.50;31.63;;;;;;;;;;6242648;28;20060;-58
2023/10/13 03:41:12;;;;;;;65.25;29.73;;;;;;;;;;6242750;28;20045;-58
2023/10/13 03:44:18;;;;;;;59.53;26.88;;;;;;;;;;6246376;28;20528;-56
2023/10/13 03:47:26;;;;;;;60.20;26.73;;;;;;;;;;6246116;28;20045;-56
2023/10/13 03:50:31;;;;;;;50.30;24.15;;;;;;;;;;6251529;28;20052;-58
2023/10/13 03:53:54;;;;;;;64.22;28.20;;;;;;;;;;6250699;28;20046;-58
2023/10/13 03:56:55;;;;;;;66.10;29.83;;;;;;;;;;6244350;28;20057;-56
2023/10/13 03:59:56;;;;;;;57.03;25.52;;;;;;;;;;6245327;28;20072;-56
2023/10/13 04:06:08;;;;;;;63.13;26.48;;;;;;;;;;6243166;28;20049;-57
2023/10/13 04:16:14;;;;;;;59.30;24.55;;;;;;;;;;6245138;28;20084;-58
2023/10/13 04:19:22;;;;;;;50.85;24.10;;;;;;;;;;6245465;28;20518;-58
2023/10/13 04:22:42;;;;;;;56.72;24.90;;;;;;;;;;6244131;28;20041;-58
2023/10/13 04:28:52;;;;;;;61.22;28.77;;;;;;;;;;6244651;28;20037;-59
2023/10/13 04:32:00;;;;;;;57.30;26.40;;;;;;;;;;6244874;28;20043;-57
2023/10/13 04:35:20;;;;;;;49.53;25.50;;;;;;;;;;6257709;28;20072;-58
2023/10/13 04:38:20;;;;;;;50.50;23.58;;;;;;;;;;6244072;28;20510;-58
2023/10/13 04:41:25;;;;;;;48.17;24.05;;;;;;;;;;6242558;28;20049;-57
2023/10/13 04:47:52;;;;;;;54.88;24.70;;;;;;;;;;6243961;28;20045;-57
2023/10/13 04:58:00;;;;;;;41.03;19.45;;;;;;;;;;6213572;28;20130;-58
2023/10/13 05:44:47;;;;;;;51.33;22.02;;;;;;;;;;6244437;28;20068;-62
2023/10/13 05:47:50;;;;;;;42.50;20.17;;;;;;;;;;6242557;28;20037;-57
2023/10/13 06:28:40;;;;;;;51.92;23.45;;;;;;;;;;6261656;28;20037;-58
2023/10/13 06:30:38;;;;;;;74.18;34.00;;;;;;;;;;6242938;28;20044;-60
2023/10/13 06:33:45;;;;;;;63.97;32.33;;;;;;;;;;6242607;28;20488;-59
2023/10/13 06:36:47;;;;;;;80.88;36.97;;;;;;;;;;6239803;28;21164;-58
2023/10/13 06:39:48;;;;;;;76.00;36.72;;;;;;;;;;6242665;28;20053;-59
2023/10/13 06:42:49;;;;;;;70.70;34.45;;;;;;;;;;6240938;28;20045;-59
2023/10/13 06:46:01;;;;;;;62.92;30.55;;;;;;;;;;6247537;28;20419;-59
2023/10/13 06:49:02;;;;;;;56.78;26.80;;;;;;;;;;6241907;28;20530;-59
2023/10/13 06:52:06;;;;;;;53.88;25.40;;;;;;;;;;6241701;28;20104;-59
2023/10/13 06:55:07;;;;;;;50.83;23.08;;;;;;;;;;6241896;28;20144;-59
2023/10/13 06:58:13;;;;;;;47.67;22.02;;;;;;;;;;6241878;28;20054;-60
2023/10/13 07:01:21;;;;;;;47.28;21.95;;;;;;;;;;6239724;28;20064;-57
2023/10/13 07:04:22;;;;;;;51.67;22.00;;;;;;;;;;6240033;28;20485;-59
2023/10/13 07:07:23;;;;;;;53.25;21.48;;;;;;;;;;6241640;28;20041;-59
2023/10/13 07:10:29;;;;;;;52.57;21.37;;;;;;;;;;6241219;28;20050;-59
2023/10/13 07:13:31;;;;;;;46.65;21.65;;;;;;;;;;6239808;28;20053;-57
2023/10/13 07:16:35;;;;;;;47.65;21.17;;;;;;;;;;6243621;28;20055;-59
2023/10/13 07:19:45;;;;;;;47.03;20.33;;;;;;;;;;6246471;28;20048;-59
2023/10/13 07:23:03;;;;;;;52.83;21.70;;;;;;;;;;6245340;28;20046;-58
2023/10/13 07:26:06;;;;;;;44.63;19.75;;;;;;;;;;6245467;28;20045;-58
2023/10/13 07:29:08;;;;;;;47.92;20.63;;;;;;;;;;6245937;28;20436;-58
2023/10/13 07:32:12;;;;;;;46.40;19.20;;;;;;;;;;6246830;28;20037;-59
2023/10/13 07:35:17;;;;;;;42.80;18.40;;;;;;;;;;6245686;28;20052;-59
2023/10/13 07:38:21;;;;;;;44.10;17.30;;;;;;;;;;6245474;28;20037;-59
2023/10/13 07:41:24;;;;;;;37.20;17.77;;;;;;;;;;6245063;28;20053;-59
2023/10/13 07:44:33;;;;;;;45.92;19.33;;;;;;;;;;6247874;28;20048;-59
2023/10/13 07:47:34;;;;;;;40.95;17.95;;;;;;;;;;6244202;28;20049;-59
2023/10/13 07:50:35;;;;;;;40.20;18.15;;;;;;;;;;6245564;28;20477;-59
2023/10/13 07:53:39;;;;;;;40.40;17.20;;;;;;;;;;6244618;28;20411;-57
2023/10/13 07:56:39;;;;;;;38.92;16.67;;;;;;;;;;6244182;28;20063;-58
2023/10/13 07:59:48;;;;;;;40.58;16.20;;;;;;;;;;6244044;28;20046;-59
2023/10/13 08:03:07;;;;;;;38.17;16.77;;;;;;;;;;6247058;28;21060;-59
2023/10/13 08:09:30;;;;;;;42.47;17.52;;;;;;;;;;6244777;28;20045;-59
2023/10/13 08:12:31;;;;;;;42.63;16.98;;;;;;;;;;6245773;28;20045;-59
2023/10/13 08:15:32;;;;;;;34.65;15.48;;;;;;;;;;6245956;28;20515;-59
2023/10/13 08:18:33;;;;;;;34.72;15.30;;;;;;;;;;6245231;28;20075;-59
2023/10/13 08:21:34;;;;;;;39.43;15.93;;;;;;;;;;6243611;28;20447;-62
2023/10/13 08:31:14;;;;;;;33.78;15.30;;;;;;;;;;6244877;28;20053;-59
2023/10/13 08:34:23;;;;;;;31.95;14.57;;;;;;;;;;6244181;28;20056;-59
2023/10/13 08:43:50;;;;;;;37.78;13.32;;;;;;;;;;6245079;28;20037;-57
2023/10/13 08:47:06;;;;;;;34.72;14.38;;;;;;;;;;6244228;28;20073;-58
2023/10/13 08:50:47;;;;;;;33.78;14.27;;;;;;;;;;6245908;28;20064;-60
2023/10/13 08:53:44;;;;;;;33.67;14.23;;;;;;;;;;6244713;28;20691;-59
2023/10/13 08:56:56;;;;;;;30.27;13.45;;;;;;;;;;6244072;28;20411;-58
2023/10/13 09:00:26;;;;;;;29.98;13.43;;;;;;;;;;6244004;28;20054;-59
2023/10/13 09:03:38;;;;;;;30.25;13.10;;;;;;;;;;6244455;28;20147;-58
2023/10/13 09:06:42;;;;;;;31.13;13.90;;;;;;;;;;6244892;28;20050;-59
2023/10/13 09:13:03;;;;;;;31.88;13.10;;;;;;;;;;6244980;28;20045;-59
2023/10/13 09:16:59;;;;;;;31.38;13.70;;;;;;;;;;6242351;28;20053;-58
2023/10/13 09:19:49;;;;;;;29.35;12.55;;;;;;;;;;6244271;28;20411;-59
2023/10/13 09:26:12;;;;;;;25.48;11.40;;;;;;;;;;6240766;28;20045;-58
2023/10/13 09:29:19;;;;;;;31.10;11.82;;;;;;;;;;6242716;28;20128;-58
2023/10/13 09:32:21;;;;;;;31.83;12.02;;;;;;;;;;6246480;28;20045;-59
2023/10/13 09:35:27;;;;;;;31.45;12.20;;;;;;;;;;6242939;28;20183;-59
2023/10/13 09:38:28;;;;;;;25.95;11.73;;;;;;;;;;6256354;28;20374;-58
2023/10/13 09:41:32;;;;;;;31.85;12.10;;;;;;;;;;6243943;28;20057;-60
2023/10/13 09:44:33;;;;;;;29.25;11.02;;;;;;;;;;6242908;28;20488;-58
2023/10/13 09:47:36;;;;;;;22.10;11.03;;;;;;;;;;6242715;28;20061;-58
2023/10/13 09:50:43;;;;;;;26.85;10.77;;;;;;;;;;6244074;28;20441;-60
2023/10/13 09:53:53;;;;;;;21.77;9.98;;;;;;;;;;6242652;28;20191;-58
2023/10/13 09:57:01;;;;;;;24.08;10.60;;;;;;;;;;6242405;28;20042;-58
2023/10/13 10:00:27;;;;;;;30.05;11.00;;;;;;;;;;6242858;28;20448;-58
2023/10/13 10:06:47;;;;;;;25.17;10.45;;;;;;;;;;6241728;28;20344;-58
2023/10/13 10:09:56;;;;;;;23.98;10.35;;;;;;;;;;6242742;28;20203;-59
2023/10/13 10:13:12;;;;;;;22.58;11.25;;;;;;;;;;6242956;28;20528;-59
2023/10/13 10:16:19;;;;;;;24.27;11.13;;;;;;;;;;6242925;28;20052;-59
2023/10/13 10:19:20;;;;;;;25.90;12.23;;;;;;;;;;6242344;28;20072;-58
2023/10/13 10:22:35;;;;;;;27.73;12.63;;;;;;;;;;6239264;28;20045;-59
2023/10/13 10:25:37;;;;;;;28.75;12.18;;;;;;;;;;6243092;28;20048;-59
2023/10/13 10:28:41;;;;;;;28.35;12.93;;;;;;;;;;6241908;28;20053;-59
2023/10/13 10:31:45;;;;;;;30.02;12.90;;;;;;;;;;6241645;28;20052;-59
2023/10/13 10:34:46;;;;;;;30.88;12.23;;;;;;;;;;6240362;28;20050;-59
2023/10/13 10:37:47;;;;;;;29.67;12.40;;;;;;;;;;6239925;28;20072;-60
2023/10/13 10:40:58;;;;;;;27.47;12.23;;;;;;;;;;6240659;28;20037;-59
2023/10/13 10:44:02;;;;;;;29.88;13.10;;;;;;;;;;6242098;28;20041;-59
2023/10/13 10:47:11;;;;;;;28.17;11.95;;;;;;;;;;6240867;28;20049;-59
2023/10/13 10:50:21;;;;;;;28.88;10.93;;;;;;;;;;6244133;28;20057;-58
2023/10/13 10:53:22;;;;;;;30.42;10.77;;;;;;;;;;6246319;28;20523;-58
2023/10/13 10:56:36;;;;;;;22.70;10.82;;;;;;;;;;6244792;28;20132;-58
2023/10/13 10:59:38;;;;;;;22.42;9.52;;;;;;;;;;6244927;28;20060;-59
2023/10/13 11:02:39;;;;;;;24.35;9.55;;;;;;;;;;6246780;28;20514;-58
2023/10/13 11:05:47;;;;;;;29.97;10.60;;;;;;;;;;6245201;28;20046;-59
2023/10/13 11:08:51;;;;;;;25.33;10.57;;;;;;;;;;6244314;28;20046;-58
2023/10/13 11:11:53;;;;;;;29.08;10.10;;;;;;;;;;6245966;28;20102;-59
2023/10/13 11:15:21;;;;;;;23.70;9.32;;;;;;;;;;6246231;28;20065;-59
2023/10/13 11:18:34;;;;;;;20.30;8.75;;;;;;;;;;6245408;28;20045;-59
2023/10/13 11:21:37;;;;;;;;;;;;;;;;;;6247811;28;20053;-59
2023/10/13 11:24:42;;;;;;;20.27;9.70;;;;;;;;;;6245873;28;19927;-59
2023/10/13 11:30:50;;;;;;;25.92;10.25;;;;;;;;;;6245302;28;20045;-59
2023/10/13 11:33:52;;;;;;;22.38;9.85;;;;;;;;;;6246516;28;20507;-59
2023/10/13 11:36:53;;;;;;;21.25;8.90;;;;;;;;;;6246707;28;20046;-59
2023/10/13 11:39:53;;;;;;;20.17;8.63;;;;;;;;;;6245640;28;20064;-59
2023/10/13 11:42:58;;;;;;;19.77;9.00;;;;;;;;;;6247211;28;20045;-59
2023/10/13 11:52:29;;;;;;;20.83;9.20;;;;;;;;;;6245300;28;20051;-58
2023/10/13 11:55:30;;;;;;;19.30;9.32;;;;;;;;;;6245948;28;20090;-58
2023/10/13 11:58:31;;;;;;;24.77;9.73;;;;;;;;;;6245685;28;20053;-59
2023/10/13 12:05:11;;;;;;;19.15;8.18;;;;;;;;;;6238667;28;20083;-59
2023/10/13 12:08:21;;;;;;;20.85;8.95;;;;;;;;;;6253284;28;20601;-60
2023/10/13 12:11:30;;;;;;;25.38;8.82;;;;;;;;;;6250160;28;20041;-58
2023/10/13 12:14:37;;;;;;;21.88;9.18;;;;;;;;;;6250766;28;20423;-59
2023/10/13 12:17:39;;;;;;;20.17;9.18;;;;;;;;;;6253946;28;20057;-58
2023/10/13 12:20:45;;;;;;;27.80;9.95;;;;;;;;;;6255222;28;20049;-60
2023/10/13 12:23:45;;;;;;;21.90;9.25;;;;;;;;;;6253490;28;20099;-59
2023/10/13 12:26:47;;;;;;;17.47;8.60;;;;;;;;;;6256304;28;20484;-59
2023/10/13 12:29:48;;;;;;;23.35;9.48;;;;;;;;;;6253071;28;20041;-58
2023/10/13 12:33:08;;;;;;;18.27;7.93;;;;;;;;;;6255689;28;20573;-58
2023/10/13 12:36:10;;;;;;;16.60;8.10;;;;;;;;;;6253650;28;20045;-59
2023/10/13 12:52:31;;;;;;;16.92;8.23;;;;;;;;;;6254446;28;20043;-59
2023/10/13 12:55:32;;;;;;;19.60;8.75;;;;;;;;;;6253377;28;20056;-58
2023/10/13 12:58:33;;;;;;;18.50;8.30;;;;;;;;;;6255925;28;20049;-60
2023/10/13 13:01:34;;;;;;;16.30;7.70;;;;;;;;;;6254190;28;20060;-58
2023/10/13 13:04:36;;;;;;;21.07;8.10;;;;;;;;;;6254570;28;20049;-59
2023/10/13 13:07:47;;;;;;;18.83;7.85;;;;;;;;;;6254112;28;20111;-59
2023/10/13 13:10:48;;;;;;;18.13;7.00;;;;;;;;;;6252953;28;20041;-59
2023/10/13 13:13:49;;;;;;;23.98;7.90;;;;;;;;;;6249909;28;20660;-59
2023/10/13 13:16:50;;;;;;;16.25;7.95;;;;;;;;;;6254638;28;20618;-58
2023/10/13 13:19:51;;;;;;;16.97;7.87;;;;;;;;;;6252014;28;20053;-59
2023/10/13 13:22:53;;;;;;;18.23;6.97;;;;;;;;;;6252398;28;20084;-58
2023/10/13 13:25:56;;;;;;;17.75;7.93;;;;;;;;;;6249304;28;20053;-58
2023/10/13 13:28:57;;;;;;;14.88;6.47;;;;;;;;;;6253572;28;20531;-58
2023/10/13 13:31:57;;;;;;;13.67;6.47;;;;;;;;;;6250148;28;20053;-58
2023/10/13 13:35:05;;;;;;;17.10;6.87;;;;;;;;;;6250132;28;20045;-60
2023/10/13 13:38:16;;;;;;;12.68;6.57;;;;;;;;;;6247333;28;20136;-60
2023/10/13 13:41:21;;;;;;;17.83;6.90;;;;;;;;;;6251508;28;20055;-60
2023/10/13 13:44:29;;;;;;;16.80;7.33;;;;;;;;;;6251008;28;20048;-59
2023/10/13 13:47:29;;;;;;;13.02;7.00;;;;;;;;;;6253870;28;20830;-59
2023/10/13 13:50:32;;;;;;;15.70;6.77;;;;;;;;;;6252980;28;20142;-59
2023/10/13 13:53:37;;;;;;;16.88;6.55;;;;;;;;;;6246747;28;20546;-58
2023/10/13 13:56:38;;;;;;;18.85;7.13;;;;;;;;;;6253196;28;20480;-59
2023/10/13 13:59:43;;;;;;;14.83;6.43;;;;;;;;;;6253746;28;20056;-59
2023/10/13 14:02:47;;;;;;;13.73;5.78;;;;;;;;;;6251624;28;20522;-59
2023/10/13 14:05:50;;;;;;;15.98;6.18;;;;;;;;;;6251695;28;20049;-59
2023/10/13 14:08:54;;;;;;;18.23;6.20;;;;;;;;;;6251452;28;20055;-61
2023/10/13 14:15:23;;;;;;;13.68;5.97;;;;;;;;;;6250750;28;20048;-60
2023/10/13 14:18:30;;;;;;;15.52;6.50;;;;;;;;;;6250959;28;20247;-58
2023/10/13 14:21:32;;;;;;;14.07;6.40;;;;;;;;;;6253049;28;20598;-58
2023/10/13 14:24:35;;;;;;;14.82;6.50;;;;;;;;;;6248285;28;20484;-59
2023/10/13 14:27:35;;;;;;;11.77;6.35;;;;;;;;;;6249891;28;20507;-59
2023/10/13 14:30:36;;;;;;;18.20;7.27;;;;;;;;;;6253703;28;20056;-51
2023/10/13 14:33:37;;;;;;;14.23;6.43;;;;;;;;;;6252292;28;20060;-58
2023/10/13 14:36:37;;;;;;;12.33;5.53;;;;;;;;;;6252915;28;21227;-57
2023/10/13 14:39:41;;;;;;;14.70;6.40;;;;;;;;;;6254003;28;20583;-58
2023/10/13 14:42:42;;;;;;;15.63;6.38;;;;;;;;;;6254938;28;20411;-58
2023/10/13 14:45:43;;;;;;;17.43;6.50;;;;;;;;;;6252409;28;20044;-59
2023/10/13 14:48:44;;;;;;;16.13;7.20;;;;;;;;;;6254282;28;20044;-59
2023/10/13 14:51:44;;;;;;;18.20;6.50;;;;;;;;;;6252414;28;20053;-58
2023/10/13 14:54:45;;;;;;;16.10;6.60;;;;;;;;;;6249910;28;20180;-59
2023/10/13 14:57:47;;;;;;;18.03;6.80;;;;;;;;;;6251619;28;20065;-59
2023/10/13 15:00:48;;;;;;;16.75;7.55;;;;;;;;;;6252854;28;20049;-59
2023/10/13 15:03:51;;;;;;;15.67;6.47;;;;;;;;;;6251017;28;20559;-59
2023/10/13 15:06:52;;;;;;;16.23;6.85;;;;;;;;;;6249034;28;20062;-60
2023/10/13 15:09:56;;;;;;;19.37;7.57;;;;;;;;;;6250916;28;20041;-59
2023/10/13 15:12:59;;;;;;;15.48;6.50;;;;;;;;;;6248671;28;20055;-58
2023/10/13 15:16:01;;;;;;;17.50;7.07;;;;;;;;;;6250019;28;20076;-58
2023/10/13 15:19:04;;;;;;;17.33;7.40;;;;;;;;;;6251890;28;20506;-59
2023/10/13 15:22:12;;;;;;;20.02;7.03;;;;;;;;;;6252481;28;20040;-59
2023/10/13 15:25:20;;;;;;;15.18;7.65;;;;;;;;;;6248897;28;20043;-59
2023/10/13 15:28:21;;;;;;;19.23;7.60;;;;;;;;;;6250839;28;20464;-58
2023/10/13 15:31:26;;;;;;;18.90;7.53;;;;;;;;;;6253260;28;20575;-59
2023/10/13 15:34:27;;;;;;;18.13;7.78;;;;;;;;;;6246898;28;20053;-59
2023/10/13 15:37:28;;;;;;;17.48;7.78;;;;;;;;;;6253217;28;20059;-58
2023/10/13 15:40:29;;;;;;;20.00;7.97;;;;;;;;;;6255934;28;20453;-59
2023/10/13 15:43:30;;;;;;;18.25;7.90;;;;;;;;;;6254357;28;20053;-59
2023/10/13 15:46:30;;;;;;;21.90;8.20;;;;;;;;;;6253018;28;20060;-63
2023/10/13 15:49:33;;;;;;;20.23;8.50;;;;;;;;;;6254184;28;20131;-57
2023/10/13 15:52:34;;;;;;;18.80;8.25;;;;;;;;;;6253937;28;20075;-57
2023/10/13 15:55:36;;;;;;;19.47;8.57;;;;;;;;;;6252202;28;20057;-57
2023/10/13 15:58:49;;;;;;;21.42;8.63;;;;;;;;;;6257058;28;20063;-58
2023/10/13 16:01:54;;;;;;;18.23;8.55;;;;;;;;;;6255182;28;20908;-57
2023/10/13 16:04:59;;;;;;;20.25;9.02;;;;;;;;;;6255138;28;20049;-59
2023/10/13 16:08:00;;;;;;;19.50;8.52;;;;;;;;;;6255816;28;20045;-61
2023/10/13 16:11:07;;;;;;;21.75;9.25;;;;;;;;;;6256270;28;20574;-59
2023/10/13 16:14:15;;;;;;;24.15;8.77;;;;;;;;;;6254366;28;20430;-60
2023/10/13 16:17:21;;;;;;;20.38;8.35;;;;;;;;;;6255363;28;20136;-59
2023/10/13 16:20:23;;;;;;;20.42;8.88;;;;;;;;;;6256057;28;20037;-58
2023/10/13 16:23:24;;;;;;;20.80;8.90;;;;;;;;;;6253422;28;20055;-59
2023/10/13 16:26:25;;;;;;;24.57;10.37;;;;;;;;;;6253876;28;20697;-60
2023/10/13 16:29:30;;;;;;;19.30;8.83;;;;;;;;;;6251764;28;20048;-59
2023/10/13 16:32:32;;;;;;;19.95;9.48;;;;;;;;;;6255498;28;20055;-60
2023/10/13 16:35:33;;;;;;;22.05;9.50;;;;;;;;;;6253089;28;20163;-59
2023/10/13 16:38:37;;;;;;;21.92;9.30;;;;;;;;;;6251486;28;20063;-60
2023/10/13 16:41:38;;;;;;;23.80;9.63;;;;;;;;;;6254852;28;20139;-59
2023/10/13 16:44:39;;;;;;;28.10;10.20;;;;;;;;;;6251550;28;20064;-62
2023/10/13 16:47:42;;;;;;;24.67;9.57;;;;;;;;;;6254794;28;20057;-62
2023/10/13 16:50:44;;;;;;;25.52;10.57;;;;;;;;;;6254485;28;20055;-59
2023/10/13 16:53:49;;;;;;;23.63;10.38;;;;;;;;;;6256545;28;20076;-60
2023/10/13 16:56:55;;;;;;;26.00;10.73;;;;;;;;;;6255426;28;20067;-59
2023/10/13 16:59:55;;;;;;;25.77;10.38;;;;;;;;;;6253013;28;20049;-60
2023/10/13 17:02:57;;;;;;;26.93;10.10;;;;;;;;;;6250348;28;20166;-65
2023/10/13 17:06:01;;;;;;;22.40;10.00;;;;;;;;;;6254102;28;20139;-62
2023/10/13 17:09:03;;;;;;;27.42;9.73;;;;;;;;;;6257446;28;20052;-60
2023/10/13 17:12:04;;;;;;;23.73;9.68;;;;;;;;;;6257053;28;20136;-60
2023/10/13 17:15:13;;;;;;;26.27;10.20;;;;;;;;;;6255865;28;20048;-60
2023/10/13 17:18:16;;;;;;;30.05;10.35;;;;;;;;;;6258121;28;20392;-60
2023/10/13 17:21:24;;;;;;;25.73;10.55;;;;;;;;;;6256298;28;20051;-60
2023/10/13 17:24:26;;;;;;;22.35;9.90;;;;;;;;;;6256351;28;20574;-64
2023/10/13 17:27:26;;;;;;;24.17;10.60;;;;;;;;;;6257668;28;20106;-61
2023/10/13 17:30:27;;;;;;;25.00;10.67;;;;;;;;;;6254901;28;20057;-62
2023/10/13 17:33:28;;;;;;;27.17;11.77;;;;;;;;;;6250141;28;21029;-60
2023/10/13 17:36:29;;;;;;;23.03;11.70;;;;;;;;;;6254372;28;20068;-60
2023/10/13 17:39:30;;;;;;;;;;;;;;;;;;6254765;28;20479;-59
2023/10/13 17:42:35;;;;;;;41.78;18.95;;;;;;;;;;6253288;28;19973;-59
2023/10/13 17:45:35;;;;;;;52.65;23.77;;;;;;;;;;6252687;28;20507;-59
2023/10/13 17:48:37;;;;;;;47.50;24.77;;;;;;;;;;6255075;28;20059;-63
2023/10/13 17:51:39;;;;;;;53.05;26.58;;;;;;;;;;6253350;28;20063;-59
2023/10/13 17:54:40;;;;;;;86.60;36.00;;;;;;;;;;6253225;28;20053;-60
2023/10/13 17:57:42;;;;;;;97.75;37.38;;;;;;;;;;6254408;28;20593;-59
2023/10/13 18:00:45;;;;;;;89.50;38.47;;;;;;;;;;6252162;28;20401;-59
2023/10/13 18:03:51;;;;;;;82.40;30.17;;;;;;;;;;6251410;28;20352;-59
2023/10/13 18:06:52;;;;;;;50.97;22.13;;;;;;;;;;6249851;28;20063;-59
2023/10/13 18:09:55;;;;;;;;;;;;;;;;;;6254031;28;20408;-59
2023/10/13 18:12:56;;;;;;;41.30;17.25;;;;;;;;;;6252863;28;19924;-59
2023/10/13 18:15:58;;;;;;;45.10;17.30;;;;;;;;;;6252003;28;20234;-58
2023/10/13 18:18:59;;;;;;;41.22;17.60;;;;;;;;;;6254293;28;20454;-58
2023/10/13 18:22:01;;;;;;;44.00;18.00;;;;;;;;;;6252378;28;20064;-58
2023/10/13 18:25:04;;;;;;;46.35;20.13;;;;;;;;;;6253179;28;20075;-58
2023/10/13 18:28:05;;;;;;;42.90;19.42;;;;;;;;;;6254173;28;20056;-59
2023/10/13 18:31:07;;;;;;;43.45;19.17;;;;;;;;;;6254336;28;20134;-59
2023/10/13 18:34:08;;;;;;;42.63;19.00;;;;;;;;;;6252083;28;20055;-59
2023/10/13 18:37:10;;;;;;;44.65;18.95;;;;;;;;;;6253987;28;20053;-62
2023/10/13 18:40:11;;;;;;;46.08;21.63;;;;;;;;;;6253080;28;20052;-59
2023/10/13 18:43:12;;;;;;;42.73;19.77;;;;;;;;;;6249943;28;20704;-59
2023/10/13 18:46:13;;;;;;;39.57;16.97;;;;;;;;;;6253051;28;20089;-60
2023/10/13 18:49:14;;;;;;;42.10;16.00;;;;;;;;;;6253885;28;20049;-60
2023/10/13 18:52:14;;;;;;;38.13;15.07;;;;;;;;;;6252836;28;20091;-59
2023/10/13 18:55:15;;;;;;;37.07;17.13;;;;;;;;;;6267851;28;20044;-60
2023/10/13 18:58:18;;;;;;;47.43;19.73;;;;;;;;;;6253620;28;20045;-60
2023/10/13 19:01:24;;;;;;;59.50;25.20;;;;;;;;;;6255327;28;20106;-59
2023/10/13 19:04:26;;;;;;;60.15;26.48;;;;;;;;;;6252618;28;20136;-59
2023/10/13 19:07:27;;;;;;;;;;;;;;;;;;6256225;28;20049;-62
2023/10/13 19:10:28;;;;;;;68.13;27.38;;;;;;;;;;6258600;28;19931;-60
2023/10/13 19:13:28;;;;;;;60.17;25.02;;;;;;;;;;6262022;28;20936;-59
2023/10/13 19:16:31;;;;;;;55.75;24.05;;;;;;;;;;6259291;28;20072;-59
2023/10/13 19:19:34;;;;;;;38.67;18.42;;;;;;;;;;6260742;28;20064;-60
2023/10/13 19:22:35;;;;;;;37.38;18.98;;;;;;;;;;6259527;28;20053;-59
2023/10/13 19:25:36;;;;;;;39.28;17.85;;;;;;;;;;6263170;28;20049;-59
2023/10/13 19:28:37;;;;;;;43.80;17.77;;;;;;;;;;6258799;28;20049;-59
2023/10/13 19:31:38;;;;;;;33.10;16.17;;;;;;;;;;6261132;28;20825;-59
2023/10/13 19:34:41;;;;;;;38.95;15.90;;;;;;;;;;6257629;28;20049;-60
2023/10/13 19:37:42;;;;;;;37.78;15.82;;;;;;;;;;6260511;28;20104;-59
2023/10/13 19:40:44;;;;;;;38.03;16.98;;;;;;;;;;6260429;28;20173;-60
2023/10/13 19:43:49;;;;;;;37.67;17.10;;;;;;;;;;6255051;28;20053;-59
2023/10/13 19:46:49;;;;;;;33.35;15.32;;;;;;;;;;6259888;28;20049;-59
2023/10/13 19:49:50;;;;;;;37.03;16.27;;;;;;;;;;6260153;28;20063;-60
2023/10/13 19:52:51;;;;;;;43.87;19.40;;;;;;;;;;6259123;28;20045;-60
2023/10/13 19:55:54;;;;;;;38.40;19.03;;;;;;;;;;6257063;28;20056;-59
2023/10/13 19:58:55;;;;;;;40.45;19.02;;;;;;;;;;6260034;28;20055;-60
2023/10/13 20:01:55;;;;;;;42.30;18.33;;;;;;;;;;6259131;28;20053;-59
2023/10/13 20:04:56;;;;;;;44.15;19.40;;;;;;;;;;6256903;28;20045;-60
2023/10/13 20:07:57;;;;;;;37.53;17.75;;;;;;;;;;6258900;28;20060;-59
2023/10/13 20:10:58;;;;;;;43.13;19.85;;;;;;;;;;6259701;28;20056;-59
2023/10/13 20:13:58;;;;;;;43.57;20.87;;;;;;;;;;6256182;28;20543;-58
2023/10/13 20:16:59;;;;;;;41.42;20.25;;;;;;;;;;6257371;28;20358;-58
2023/10/13 20:20:00;;;;;;;44.28;18.40;;;;;;;;;;6258850;28;20056;-59
2023/10/13 20:23:01;;;;;;;45.13;19.38;;;;;;;;;;6256548;28;20125;-58
2023/10/13 20:26:03;;;;;;;46.97;20.70;;;;;;;;;;6257662;28;20045;-62
2023/10/13 20:29:04;;;;;;;48.03;21.02;;;;;;;;;;6258398;28;20099;-62
2023/10/13 20:32:05;;;;;;;50.28;21.45;;;;;;;;;;6257693;28;20090;-58
2023/10/13 20:35:06;;;;;;;47.60;23.83;;;;;;;;;;6255254;28;20239;-58
2023/10/13 20:38:08;;;;;;;46.65;21.98;;;;;;;;;;6255045;28;20454;-58
2023/10/13 20:41:10;;;;;;;45.08;21.77;;;;;;;;;;6254354;28;20567;-58
2023/10/13 20:44:10;;;;;;;47.78;21.05;;;;;;;;;;6269031;28;20508;-58
2023/10/13 20:47:11;;;;;;;46.38;19.40;;;;;;;;;;6251536;28;20137;-58